Aviation Digital Data Service (ADDS)

Output produced by METARs form (2239 UTC 30 March 2017)
found at http://www.aviationweather.gov/adds/metars/
 
TAF MMCS 301706Z 3018/3118 24015KT P6SM SKC 
     FM310600 23008KT P6SM SKC 
     FM311800 23015KT P6SM SKC
       
TAF MMAA 301625Z 3018/3124 24010KT P6SM SKC TX30/3018Z TN21/3112Z 
     FM310400 03005KT 6SM HZ SKC 
     FM311800 23010KT P6SM SKC
       
TAF MMAN 301706Z 3018/3118 33012KT P6SM SKC 
     FM310000 13008KT 6SM HZ SKC 
     FM310600 33005KT 6SM HZ SKC 
     FM311800 13010KT P6SM SKC
       
TAF MMAS 301650Z 3018/3118 00000KT P6SM SCT210 
     BECMG 3020/3021 25012KT BKN210 
     FM310200 00000KT P6SM SCT210 
     BECMG 3112/3113 6SM HZ 
     FM311800 23015KT P6SM BKN220
       
TAF MMBT 301639Z 3018/3118 27015KT 6SM HZ SCT030 BKN220 
     BECMG 3020/3021 25020G30KT 
     FM310200 25012KT P6SM BKN220 
     BECMG 3105/3106 00000KT 
     FM311200 18005KT 6SM HZ SCT220
       
TAF MMCB 301639Z 3018/3118 19006KT P6SM SCT220 
     BECMG 3020/3021 23012KT 
     FM310200 00000KT P6SM SCT220 
     BECMG 3115/3116 16005KT
       
TAF MMCE 301716Z 3018/3118 12010KT 5SM HZ OVC300 
     FM302000 36012KT 6SM HZ SCT020 BKN300 
     FM310200 36005KT P6SM BKN300 
     FM311200 12006KT 6SM HZ SCT015 BKN300
       
TAF MMCL 301646Z 3018/3118 25012KT P6SM SKC 
     FM310600 02005KT P6SM SKC 
     FM311800 20010KT P6SM SKC
       
TAF MMCM 301716Z 3018/3118 12015KT 6SM HZ BKN015 
     FM302000 09015KT P6SM SCT020 SCT220 
     FM310200 12005KT P6SM SCT020 BKN220 
     FM311000 12006KT 3SM BR HZ BKN015 BKN220 
     FM311500 12010KT 6SM HZ SCT020 BKN220
       
TAF MMCN 301703Z 3018/3118 25006KT P6SM SKC 
     BECMG 3020/3021 25015KT 
     FM310200 18005KT P6SM SKC 
     BECMG 3105/3106 00000KT 
     FM311700 21008KT P6SM SKC
       
TAF MMCP 301716Z 3018/3118 12010KT 6SM HZ SCT300 
     FM302000 36010G20KT 6SM HZ SCT030 BKN300 
     FM310200 03006KT P6SM BKN300 
     BECMG 3105/3106 12005KT 
     FM311200 12006KT 6SM HZ BKN300
       
TAF MMCS 301706Z 3018/3118 24015KT P6SM SKC 
     FM310600 23008KT P6SM SKC 
     FM311800 23015KT P6SM SKC
       
TAF MMCU 301706Z 3018/3118 22010KT P6SM SKC 
     FM310400 22012KT P6SM SKC 
     FM311800 20010G20KT P6SM SKC
       
TAF MMCV 301727Z 3018/3118 35018KT P6SM SKC 
     BECMG 3020/3021 03012KT 
     FM310200 05006KT P6SM SKC 
     BECMG 3105/3106 12006KT 
     FM311200 14008KT 6SM HZ SCT250
       
TAF MMCZ 301656Z 3018/3124 15015KT 6SM HZ BKN015 
     FM310400 13008KT 6SM HZ SCT015 
     TEMPO 3112/3116 BKN015 
     FM311800 13010KT P6SM SCT020
       
TAF MMDO 301703Z 3018/3118 25006KT P6SM SKC 
     BECMG 3020/3021 25012KT 
     FM310200 25005KT P6SM SKC 
     BECMG 3105/3106 00000KT 
     FM311700 25012KT P6SM SKC
       
TAF MMEP 301650Z 3018/3118 27005KT P6SM SCT250 
     BECMG 3020/3021 27012KT BKN250 
     FM310200 00000KT P6SM SCT250 
     FM311000 00000KT 3SM BR HZ SCT250 
     FM311500 00000KT P6SM SCT250
       
TAF MMGL 301632Z 3018/3124 23010KT 6SM HZ SCT300 TX30/3021Z TN10/3112Z 
     FM310400 23005KT 6SM HZ SCT300 
     FM311800 20010KT P6SM SCT300
       
TAF MMGM 301703Z 3018/3118 23005KT P6SM SKC 
     BECMG 3020/3021 23012KT 
     FM310200 00000KT P6SM SKC 
     BECMG 3117/3118 23006KT
       
TAF MMHO 301646Z 3018/3118 24010KT P6SM SKC 
     FM310500 23005KT P6SM SKC 
     FM311800 24010KT P6SM SKC
       
TAF MMIA 301650Z 3018/3118 24005KT P6SM SCT250 
     BECMG 3020/3021 24012KT SCT030 
     FM310200 00000KT P6SM SCT250 
     BECMG 3112/3113 6SM HZ
       
TAF MMIO 301706Z 3018/3118 03010KT P6SM SKC 
     FM310600 03005KT P6SM SKC 
     FM311800 03010KT P6SM SKC
       
TAF MMLM 301703Z 3018/3118 34008KT P6SM SKC 
     BECMG 3020/3021 32015KT 
     FM310200 32005KT P6SM SKC 
     BECMG 3105/3106 00000KT 
     FM311200 18005KT P6SM SKC
       
TAF MMLO 301650Z 3018/3118 27005KT P6SM SCT250 
     BECMG 3020/3021 28012KT 
     FM310200 00000KT P6SM SCT220 
     BECMG 3112/3113 19005KT 6SM HZ
       
TAF MMLP 301646Z 3018/3118 34010KT P6SM SKC 
     FM310600 16005KT P6SM SKC 
     FM311800 34010KT P6SM SKC
       
TAF MMLT 301703Z 3018/3118 12005KT P6SM SKC 
     BECMG 3020/3021 14015KT 
     FM310200 18008KT P6SM SKC 
     BECMG 3105/3106 27010KT 
     FM311200 24012KT P6SM SKC
       
TAF MMMA 301727Z 3018/3118 33012KT P6SM SKC 
     BECMG 3020/3021 36015KT 
     FM310200 03012KT P6SM SKC 
     BECMG 3105/3106 12006KT 
     FM311000 15005KT 3SM BR HZ SCT015 
     FM311500 15012KT P6SM SKC
       
TAF MMMD 301656Z 3018/3124 13015KT 6SM HZ BKN025 BKN300 TX37/3020Z TN22/3112Z 
     FM310300 13010KT 6SM SCT020 BKN300 
     TEMPO 3112/3115 BKN010 
     FM311800 33015KT 6SM HZ BKN020
       
TAF MMML 301646Z 3018/3118 33015KT P6SM SKC 
     FM310600 30010KT P6SM SKC 
     FM311800 33012KT P6SM SKC
       
TAF COR MMMM 301827Z 3018/3124 20010G20KT P6SM SCT200 
     FM310600 23005KT 6SM HZ SCT200 
     FM311800 23010KT P6SM SCT200
       
TAF AMD MMMT 301956Z 3020/3118 36020KT P6SM SCT220 
     BECMG 3101/3102 34006KT 
     FM311000 00000KT 3SM BR HZ BKN015 BKN220 
     FM311500 12005KT 6SM HZ SCT015 BKN220
       
TAF MMMV 301706Z 3018/3118 33010KT P6SM SKC 
     FM310100 20005KT P6SM SKC 
     FM311800 13010KT P6SM SKC
       
TAF MMMX 301625Z 3018/3124 08010KT P6SM SCT025 SCT200 TX27/3021Z TN12/3112Z 
     FM310400 03005KT P6SM SCT200 
     FM311800 14010KT P6SM SCT200
       
TAF MMMY 301706Z 3018/3124 33015KT P6SM SKC TX29/3021Z TN17/3112Z 
     FM310000 06010KT P6SM SKC 
     FM310600 13005KT P6SM SKC 
     FM311800 13010KT P6SM SKC
       
TAF MMMZ 301646Z 3018/3124 24010KT P6SM SCT250 TX28/3020Z TN11/3112Z 
     FM310400 03005KT P6SM SKC 
     TEMPO 3111/3115 1SM BR BKN005 
     FM311800 23010KT P6SM SKC
       
TAF MMNL 301727Z 3018/3118 35010KT P6SM SKC 
     BECMG 3020/3021 34012KT 
     FM310100 07005KT P6SM SKC 
     BECMG 3103/3104 12006KT 
     FM310800 14012KT P6SM SKC 
     BECMG 3116/3117 14015KT
       
TAF MMOX 301639Z 3018/3118 00000KT P6SM SCT030 BKN220 
     FM302100 16010KT P6SM BKN030CB BKN100 
     TEMPO 3022/3102 6SM -TSRA 
     FM310300 00000KT P6SM SCT030 BKN100 
     BECMG 3105/3106 00000KT SCT100 SCT220 
     FM311200 00000KT 6SM HZ SCT220
       
TAF MMPA 301727Z 3018/3118 02008KT 5SM HZ BKN020 BKN280 
     FM302000 02012KT 6SM HZ BKN020CB BKN080 
     TEMPO 3021/3101 VC RA 
     FM310200 00000KT 6SM HZ SCT020 SCT080 
     FM311000 00000KT 3SM BR HZ BKN015 
     FM311500 04005KT 5SM HZ SCT015 BKN280
       
TAF MMPB 301639Z 3018/3118 15006KT 6SM HZ SCT220 
     BECMG 3020/3021 21015KT SCT020 
     FM310200 00000KT P6SM SCT220 
     BECMG 3112/3113 6SM HZ
       
TAF MMPG 301727Z 3018/3118 00000KT P6SM SKC 
     BECMG 3020/3021 27008KT 
     FM310200 13005KT P6SM SKC 
     BECMG 3112/3113 6SM HZ 
     FM311600 13012KT P6SM SKC
       
TAF MMPN 301650Z 3018/3118 00000KT P6SM SCT260 
     BECMG 3020/3021 23010KT 
     FM310200 00000KT P6SM SCT260 
     BECMG 3112/3113 6SM HZ
       
TAF MMPQ 301716Z 3018/3118 21005KT 4SM HZ SCT220 
     FM302000 27010KT 5SM HZ SCT015 BKN220 
     FM310200 35005KT 6SM HZ SCT015 BKN080 
     BECMG 3105/3106 03005KT 
     FM311000 00000KT 3SM BR HZ BKN015 BKN080 
     FM311500 05005KT 5SM HZ SCT015 SCT080
       
TAF MMPR 301632Z 3018/3124 24010KT P6SM SCT250 TX27/3021Z TN17/3112Z 
     FM310500 03005KT 6SM HZ SCT015 SCT250 
     FM311800 23010KT P6SM SCT250
       
TAF MMPS 301639Z 3018/3118 27010KT 6SM HZ SCT040 BKN220 
     BECMG 3020/3021 27018KT 
     FM310200 00000KT P6SM SCT220 
     BECMG 3112/3113 6SM HZ
       
TAF MMQT 301650Z 3018/3118 29010KT 6SM HZ SCT220 
     BECMG 3020/3021 29015KT 
     FM310200 03005KT P6SM SCT220 
     BECMG 3105/3106 17005KT 
     FM311200 18005KT 6SM HZ SCT220
       
TAF MMRX 301727Z 3018/3118 34015KT P6SM SKC 
     BECMG 3020/3021 36012KT 
     FM310100 07006KT P6SM SKC 
     BECMG 3103/3104 12008KT 
     FM311000 15010KT 3SM BR HZ BKN010 
     FM311500 15015KT P6SM SKC
       
TAF MMSD 301703Z 3018/3118 13005KT P6SM SKC 
     BECMG 3020/3021 13012KT 
     FM310200 28005KT P6SM SKC 
     BECMG 3105/3106 00000KT 
     FM311800 13005KT P6SM SKC
       
TAF MMSL 301703Z 3018/3118 17005KT P6SM SKC 
     BECMG 3020/3021 21012KT 
     FM310200 00000KT P6SM SKC 
     BECMG 3112/3113 32005KT
       
TAF MMSP 301632Z 3018/3124 30010KT P6SM SKC TX28/3021Z TN10/3112Z 
     FM310600 13005KT 6SM HZ SKC 
     TEMPO 3112/3115 3SM BR BKN010 
     FM311800 14010KT P6SM SKC
       
TAF MMTC 301706Z 3018/3118 34010KT P6SM SKC 
     FM310600 03005KT P6SM SKC 
     FM311800 24010KT P6SM SKC
       
TAF MMTG 301656Z 3018/3118 30015KT P6SM SCT020 SCT300 
     FM310400 30008KT P6SM BKN020 
     TEMPO 3112/3116 BKN010 
     FM311800 24010KT P6SM SCT015
       
TAF MMTJ 301646Z 3018/3124 30015KT P6SM BKN020 TX22/3021Z TN10/3112Z 
     FM310400 30008KT 6SM HZ SCT015 
     TEMPO 3112/3116 3SM BR BKN005 OVC010 
     FM311800 30010KT P6SM SKC
       
TAF MMTM 301625Z 3018/3118 02010KT 6SM HZ BKN020 
     TEMPO 3022/3102 5SM -RA BKN010 
     FM310600 05010KT 6SM HZ BKN010 
     TEMPO 3112/3115 3SM HZ BKN005 
     FM311800 13010KT 6SM HZ SCT015 SCT080
       
TAF MMTO 301625Z 3018/3124 25010KT 6SM HZ SCT015 SCT200 TX24/3021Z TN01/3112Z 
     FM310500 23005KT 6SM HZ SCT200 
     FM311800 20010KT 6SM HZ SCT200
       
TAF MMTP 301656Z 3018/3124 24010KT P6SM SCT025 
     FM310400 23005KT P6SM SKC 
     FM311800 23010KT 6SM HZ SCT020
       
TAF MMUN 301656Z 3018/3124 13015KT 6SM HZ BKN020 BKN250 TX29/3020Z TN25/3112Z 
     FM310500 13008KT 6SM HZ BKN015 
     FM311800 13010KT P6SM BKN020
       
TAF MMVA 301716Z 3018/3118 03005KT 5SM HZ SCT100 
     FM302000 03012KT 6SM HZ SCT020 SCT220 
     FM310200 32005KT P6SM SCT080 BKN220 
     FM310600 24005KT 6SM HZ SCT015 BKN080 
     FM311000 00000KT 3SM BR HZ BKN015 BKN080 
     FM311500 27005KT 5SM HZ SCT015 SCT080
       
TAF AMD MMVR 301922Z 3019/3118 33010G20KT 6SM HZ SCT015 TX31/3019Z TN22/3112Z 
     FM310000 33015G25KT 6SM HZ BKN015 
     FM310600 03005KT 6SM HZ BKN010 BKN080 
     TEMPO 3106/3110 5SM -RA 
     FM311800 33010G25KT 6SM HZ BKN015
       
TAF MMZC 301632Z 3018/3124 20010KT P6SM SKC TX26/3021Z TN02/3113Z 
     FM310600 23005KT P6SM SCT250 
     FM311800 23015KT P6SM SCT250
       
TAF MMZH 301639Z 3018/3118 23008KT 6SM HZ SCT250 
     BECMG 3020/3021 23012KT SCT020 
     FM310200 00000KT P6SM SCT250 
     BECMG 3112/3113 6SM HZ
       
TAF MMZO 301632Z 3018/3118 23008KT P6SM SCT250 
     FM310600 03005KT 6SM HZ SCT250 
     FM311800 23010KT P6SM SCT250
       
TAF MMAA 301625Z 3018/3124 24010KT P6SM SKC TX30/3018Z TN21/3112Z 
     FM310400 03005KT 6SM HZ SKC 
     FM311800 23010KT P6SM SKC
       
TAF MMAN 301706Z 3018/3118 33012KT P6SM SKC 
     FM310000 13008KT 6SM HZ SKC 
     FM310600 33005KT 6SM HZ SKC 
     FM311800 13010KT P6SM SKC
       
TAF MMAS 301650Z 3018/3118 00000KT P6SM SCT210 
     BECMG 3020/3021 25012KT BKN210 
     FM310200 00000KT P6SM SCT210 
     BECMG 3112/3113 6SM HZ 
     FM311800 23015KT P6SM BKN220
       
TAF MMBT 301639Z 3018/3118 27015KT 6SM HZ SCT030 BKN220 
     BECMG 3020/3021 25020G30KT 
     FM310200 25012KT P6SM BKN220 
     BECMG 3105/3106 00000KT 
     FM311200 18005KT 6SM HZ SCT220
       
TAF MMCB 301639Z 3018/3118 19006KT P6SM SCT220 
     BECMG 3020/3021 23012KT 
     FM310200 00000KT P6SM SCT220 
     BECMG 3115/3116 16005KT
       
TAF MMCE 301716Z 3018/3118 12010KT 5SM HZ OVC300 
     FM302000 36012KT 6SM HZ SCT020 BKN300 
     FM310200 36005KT P6SM BKN300 
     FM311200 12006KT 6SM HZ SCT015 BKN300
       
TAF MMCL 301646Z 3018/3118 25012KT P6SM SKC 
     FM310600 02005KT P6SM SKC 
     FM311800 20010KT P6SM SKC
       
TAF MMCM 301716Z 3018/3118 12015KT 6SM HZ BKN015 
     FM302000 09015KT P6SM SCT020 SCT220 
     FM310200 12005KT P6SM SCT020 BKN220 
     FM311000 12006KT 3SM BR HZ BKN015 BKN220 
     FM311500 12010KT 6SM HZ SCT020 BKN220
       
TAF MMCN 301703Z 3018/3118 25006KT P6SM SKC 
     BECMG 3020/3021 25015KT 
     FM310200 18005KT P6SM SKC 
     BECMG 3105/3106 00000KT 
     FM311700 21008KT P6SM SKC
       
TAF MMCP 301716Z 3018/3118 12010KT 6SM HZ SCT300 
     FM302000 36010G20KT 6SM HZ SCT030 BKN300 
     FM310200 03006KT P6SM BKN300 
     BECMG 3105/3106 12005KT 
     FM311200 12006KT 6SM HZ BKN300
       
TAF MMCS 301706Z 3018/3118 24015KT P6SM SKC 
     FM310600 23008KT P6SM SKC 
     FM311800 23015KT P6SM SKC
       
TAF MMCU 301706Z 3018/3118 22010KT P6SM SKC 
     FM310400 22012KT P6SM SKC 
     FM311800 20010G20KT P6SM SKC
       
TAF MMCV 301727Z 3018/3118 35018KT P6SM SKC 
     BECMG 3020/3021 03012KT 
     FM310200 05006KT P6SM SKC 
     BECMG 3105/3106 12006KT 
     FM311200 14008KT 6SM HZ SCT250
       
TAF MMCZ 301656Z 3018/3124 15015KT 6SM HZ BKN015 
     FM310400 13008KT 6SM HZ SCT015 
     TEMPO 3112/3116 BKN015 
     FM311800 13010KT P6SM SCT020
       
TAF MMDO 301703Z 3018/3118 25006KT P6SM SKC 
     BECMG 3020/3021 25012KT 
     FM310200 25005KT P6SM SKC 
     BECMG 3105/3106 00000KT 
     FM311700 25012KT P6SM SKC
       
TAF MMEP 301650Z 3018/3118 27005KT P6SM SCT250 
     BECMG 3020/3021 27012KT BKN250 
     FM310200 00000KT P6SM SCT250 
     FM311000 00000KT 3SM BR HZ SCT250 
     FM311500 00000KT P6SM SCT250
       
TAF MMGL 301632Z 3018/3124 23010KT 6SM HZ SCT300 TX30/3021Z TN10/3112Z 
     FM310400 23005KT 6SM HZ SCT300 
     FM311800 20010KT P6SM SCT300
       
TAF MMGM 301703Z 3018/3118 23005KT P6SM SKC 
     BECMG 3020/3021 23012KT 
     FM310200 00000KT P6SM SKC 
     BECMG 3117/3118 23006KT
       
TAF MMHO 301646Z 3018/3118 24010KT P6SM SKC 
     FM310500 23005KT P6SM SKC 
     FM311800 24010KT P6SM SKC
       
TAF MMIA 301650Z 3018/3118 24005KT P6SM SCT250 
     BECMG 3020/3021 24012KT SCT030 
     FM310200 00000KT P6SM SCT250 
     BECMG 3112/3113 6SM HZ
       
TAF MMIO 301706Z 3018/3118 03010KT P6SM SKC 
     FM310600 03005KT P6SM SKC 
     FM311800 03010KT P6SM SKC
       
TAF MMLM 301703Z 3018/3118 34008KT P6SM SKC 
     BECMG 3020/3021 32015KT 
     FM310200 32005KT P6SM SKC 
     BECMG 3105/3106 00000KT 
     FM311200 18005KT P6SM SKC
       
TAF MMLO 301650Z 3018/3118 27005KT P6SM SCT250 
     BECMG 3020/3021 28012KT 
     FM310200 00000KT P6SM SCT220 
     BECMG 3112/3113 19005KT 6SM HZ
       
TAF MMLP 301646Z 3018/3118 34010KT P6SM SKC 
     FM310600 16005KT P6SM SKC 
     FM311800 34010KT P6SM SKC
       
TAF MMLT 301703Z 3018/3118 12005KT P6SM SKC 
     BECMG 3020/3021 14015KT 
     FM310200 18008KT P6SM SKC 
     BECMG 3105/3106 27010KT 
     FM311200 24012KT P6SM SKC
       
TAF MMMA 301727Z 3018/3118 33012KT P6SM SKC 
     BECMG 3020/3021 36015KT 
     FM310200 03012KT P6SM SKC 
     BECMG 3105/3106 12006KT 
     FM311000 15005KT 3SM BR HZ SCT015 
     FM311500 15012KT P6SM SKC
       
TAF MMMD 301656Z 3018/3124 13015KT 6SM HZ BKN025 BKN300 TX37/3020Z TN22/3112Z 
     FM310300 13010KT 6SM SCT020 BKN300 
     TEMPO 3112/3115 BKN010 
     FM311800 33015KT 6SM HZ BKN020
       
TAF MMML 301646Z 3018/3118 33015KT P6SM SKC 
     FM310600 30010KT P6SM SKC 
     FM311800 33012KT P6SM SKC
       
TAF COR MMMM 301827Z 3018/3124 20010G20KT P6SM SCT200 
     FM310600 23005KT 6SM HZ SCT200 
     FM311800 23010KT P6SM SCT200
       
TAF AMD MMMT 301956Z 3020/3118 36020KT P6SM SCT220 
     BECMG 3101/3102 34006KT 
     FM311000 00000KT 3SM BR HZ BKN015 BKN220 
     FM311500 12005KT 6SM HZ SCT015 BKN220
       
TAF MMMV 301706Z 3018/3118 33010KT P6SM SKC 
     FM310100 20005KT P6SM SKC 
     FM311800 13010KT P6SM SKC
       
TAF MMMX 301625Z 3018/3124 08010KT P6SM SCT025 SCT200 TX27/3021Z TN12/3112Z 
     FM310400 03005KT P6SM SCT200 
     FM311800 14010KT P6SM SCT200
       
TAF MMMY 301706Z 3018/3124 33015KT P6SM SKC TX29/3021Z TN17/3112Z 
     FM310000 06010KT P6SM SKC 
     FM310600 13005KT P6SM SKC 
     FM311800 13010KT P6SM SKC
       
TAF MMMZ 301646Z 3018/3124 24010KT P6SM SCT250 TX28/3020Z TN11/3112Z 
     FM310400 03005KT P6SM SKC 
     TEMPO 3111/3115 1SM BR BKN005 
     FM311800 23010KT P6SM SKC
       
TAF MMNL 301727Z 3018/3118 35010KT P6SM SKC 
     BECMG 3020/3021 34012KT 
     FM310100 07005KT P6SM SKC 
     BECMG 3103/3104 12006KT 
     FM310800 14012KT P6SM SKC 
     BECMG 3116/3117 14015KT
       
TAF MMOX 301639Z 3018/3118 00000KT P6SM SCT030 BKN220 
     FM302100 16010KT P6SM BKN030CB BKN100 
     TEMPO 3022/3102 6SM -TSRA 
     FM310300 00000KT P6SM SCT030 BKN100 
     BECMG 3105/3106 00000KT SCT100 SCT220 
     FM311200 00000KT 6SM HZ SCT220
       
TAF MMPA 301727Z 3018/3118 02008KT 5SM HZ BKN020 BKN280 
     FM302000 02012KT 6SM HZ BKN020CB BKN080 
     TEMPO 3021/3101 VC RA 
     FM310200 00000KT 6SM HZ SCT020 SCT080 
     FM311000 00000KT 3SM BR HZ BKN015 
     FM311500 04005KT 5SM HZ SCT015 BKN280
       
TAF MMPB 301639Z 3018/3118 15006KT 6SM HZ SCT220 
     BECMG 3020/3021 21015KT SCT020 
     FM310200 00000KT P6SM SCT220 
     BECMG 3112/3113 6SM HZ
       
TAF MMPG 301727Z 3018/3118 00000KT P6SM SKC 
     BECMG 3020/3021 27008KT 
     FM310200 13005KT P6SM SKC 
     BECMG 3112/3113 6SM HZ 
     FM311600 13012KT P6SM SKC
       
TAF MMPN 301650Z 3018/3118 00000KT P6SM SCT260 
     BECMG 3020/3021 23010KT 
     FM310200 00000KT P6SM SCT260 
     BECMG 3112/3113 6SM HZ
       
TAF MMPQ 301716Z 3018/3118 21005KT 4SM HZ SCT220 
     FM302000 27010KT 5SM HZ SCT015 BKN220 
     FM310200 35005KT 6SM HZ SCT015 BKN080 
     BECMG 3105/3106 03005KT 
     FM311000 00000KT 3SM BR HZ BKN015 BKN080 
     FM311500 05005KT 5SM HZ SCT015 SCT080
       
TAF MMPR 301632Z 3018/3124 24010KT P6SM SCT250 TX27/3021Z TN17/3112Z 
     FM310500 03005KT 6SM HZ SCT015 SCT250 
     FM311800 23010KT P6SM SCT250
       
TAF MMPS 301639Z 3018/3118 27010KT 6SM HZ SCT040 BKN220 
     BECMG 3020/3021 27018KT 
     FM310200 00000KT P6SM SCT220 
     BECMG 3112/3113 6SM HZ
       
TAF MMQT 301650Z 3018/3118 29010KT 6SM HZ SCT220 
     BECMG 3020/3021 29015KT 
     FM310200 03005KT P6SM SCT220 
     BECMG 3105/3106 17005KT 
     FM311200 18005KT 6SM HZ SCT220
       
TAF MMRX 301727Z 3018/3118 34015KT P6SM SKC 
     BECMG 3020/3021 36012KT 
     FM310100 07006KT P6SM SKC 
     BECMG 3103/3104 12008KT 
     FM311000 15010KT 3SM BR HZ BKN010 
     FM311500 15015KT P6SM SKC
       
TAF MMSD 301703Z 3018/3118 13005KT P6SM SKC 
     BECMG 3020/3021 13012KT 
     FM310200 28005KT P6SM SKC 
     BECMG 3105/3106 00000KT 
     FM311800 13005KT P6SM SKC
       
TAF MMSL 301703Z 3018/3118 17005KT P6SM SKC 
     BECMG 3020/3021 21012KT 
     FM310200 00000KT P6SM SKC 
     BECMG 3112/3113 32005KT
       
TAF MMSP 301632Z 3018/3124 30010KT P6SM SKC TX28/3021Z TN10/3112Z 
     FM310600 13005KT 6SM HZ SKC 
     TEMPO 3112/3115 3SM BR BKN010 
     FM311800 14010KT P6SM SKC
       
TAF MMTC 301706Z 3018/3118 34010KT P6SM SKC 
     FM310600 03005KT P6SM SKC 
     FM311800 24010KT P6SM SKC
       
TAF MMTG 301656Z 3018/3118 30015KT P6SM SCT020 SCT300 
     FM310400 30008KT P6SM BKN020 
     TEMPO 3112/3116 BKN010 
     FM311800 24010KT P6SM SCT015
       
TAF MMTJ 301646Z 3018/3124 30015KT P6SM BKN020 TX22/3021Z TN10/3112Z 
     FM310400 30008KT 6SM HZ SCT015 
     TEMPO 3112/3116 3SM BR BKN005 OVC010 
     FM311800 30010KT P6SM SKC
       
TAF MMTM 301625Z 3018/3118 02010KT 6SM HZ BKN020 
     TEMPO 3022/3102 5SM -RA BKN010 
     FM310600 05010KT 6SM HZ BKN010 
     TEMPO 3112/3115 3SM HZ BKN005 
     FM311800 13010KT 6SM HZ SCT015 SCT080
       
TAF MMTO 301625Z 3018/3124 25010KT 6SM HZ SCT015 SCT200 TX24/3021Z TN01/3112Z 
     FM310500 23005KT 6SM HZ SCT200 
     FM311800 20010KT 6SM HZ SCT200
       
TAF MMTP 301656Z 3018/3124 24010KT P6SM SCT025 
     FM310400 23005KT P6SM SKC 
     FM311800 23010KT 6SM HZ SCT020
       
TAF MMUN 301656Z 3018/3124 13015KT 6SM HZ BKN020 BKN250 TX29/3020Z TN25/3112Z 
     FM310500 13008KT 6SM HZ BKN015 
     FM311800 13010KT P6SM BKN020
       
TAF MMVA 301716Z 3018/3118 03005KT 5SM HZ SCT100 
     FM302000 03012KT 6SM HZ SCT020 SCT220 
     FM310200 32005KT P6SM SCT080 BKN220 
     FM310600 24005KT 6SM HZ SCT015 BKN080 
     FM311000 00000KT 3SM BR HZ BKN015 BKN080 
     FM311500 27005KT 5SM HZ SCT015 SCT080
       
TAF AMD MMVR 301922Z 3019/3118 33010G20KT 6SM HZ SCT015 TX31/3019Z TN22/3112Z 
     FM310000 33015G25KT 6SM HZ BKN015 
     FM310600 03005KT 6SM HZ BKN010 BKN080 
     TEMPO 3106/3110 5SM -RA 
     FM311800 33010G25KT 6SM HZ BKN015
       
TAF MMZC 301632Z 3018/3124 20010KT P6SM SKC TX26/3021Z TN02/3113Z 
     FM310600 23005KT P6SM SCT250 
     FM311800 23015KT P6SM SCT250
       
TAF MMZH 301639Z 3018/3118 23008KT 6SM HZ SCT250 
     BECMG 3020/3021 23012KT SCT020 
     FM310200 00000KT P6SM SCT250 
     BECMG 3112/3113 6SM HZ
       
TAF MMZO 301632Z 3018/3118 23008KT P6SM SCT250 
     FM310600 03005KT 6SM HZ SCT250 
     FM311800 23010KT P6SM SCT250
       
TAF MMBT 301639Z 3018/3118 27015KT 6SM HZ SCT030 BKN220 
     BECMG 3020/3021 25020G30KT 
     FM310200 25012KT P6SM BKN220 
     BECMG 3105/3106 00000KT 
     FM311200 18005KT 6SM HZ SCT220
       
TAF MMVA 301716Z 3018/3118 03005KT 5SM HZ SCT100 
     FM302000 03012KT 6SM HZ SCT020 SCT220 
     FM310200 32005KT P6SM SCT080 BKN220 
     FM310600 24005KT 6SM HZ SCT015 BKN080 
     FM311000 00000KT 3SM BR HZ BKN015 BKN080 
     FM311500 27005KT 5SM HZ SCT015 SCT080
       
TAF MMUN 301656Z 3018/3124 13015KT 6SM HZ BKN020 BKN250 TX29/3020Z TN25/3112Z 
     FM310500 13008KT 6SM HZ BKN015 
     FM311800 13010KT P6SM BKN020
       
TAF MMCM 301716Z 3018/3118 12015KT 6SM HZ BKN015 
     FM302000 09015KT P6SM SCT020 SCT220 
     FM310200 12005KT P6SM SCT020 BKN220 
     FM311000 12006KT 3SM BR HZ BKN015 BKN220 
     FM311500 12010KT 6SM HZ SCT020 BKN220
       
TAF MMCE 301716Z 3018/3118 12010KT 5SM HZ OVC300 
     FM302000 36012KT 6SM HZ SCT020 BKN300 
     FM310200 36005KT P6SM BKN300 
     FM311200 12006KT 6SM HZ SCT015 BKN300
       
TAF MMCN 301703Z 3018/3118 25006KT P6SM SKC 
     BECMG 3020/3021 25015KT 
     FM310200 18005KT P6SM SKC 
     BECMG 3105/3106 00000KT 
     FM311700 21008KT P6SM SKC
       
TAF MMCV 301727Z 3018/3118 35018KT P6SM SKC 
     BECMG 3020/3021 03012KT 
     FM310200 05006KT P6SM SKC 
     BECMG 3105/3106 12006KT 
     FM311200 14008KT 6SM HZ SCT250
       
TAF MMCZ 301656Z 3018/3124 15015KT 6SM HZ BKN015 
     FM310400 13008KT 6SM HZ SCT015 
     TEMPO 3112/3116 BKN015 
     FM311800 13010KT P6SM SCT020
       
TAF MMCB 301639Z 3018/3118 19006KT P6SM SCT220 
     BECMG 3020/3021 23012KT 
     FM310200 00000KT P6SM SCT220 
     BECMG 3115/3116 16005KT
       
TAF MMCL 301646Z 3018/3118 25012KT P6SM SKC 
     FM310600 02005KT P6SM SKC 
     FM311800 20010KT P6SM SKC
       
TAF MMLO 301650Z 3018/3118 27005KT P6SM SCT250 
     BECMG 3020/3021 28012KT 
     FM310200 00000KT P6SM SCT220 
     BECMG 3112/3113 19005KT 6SM HZ
       
TAF MMAN 301706Z 3018/3118 33012KT P6SM SKC 
     FM310000 13008KT 6SM HZ SKC 
     FM310600 33005KT 6SM HZ SKC 
     FM311800 13010KT P6SM SKC
       
TAF MMGL 301632Z 3018/3124 23010KT 6SM HZ SCT300 TX30/3021Z TN10/3112Z 
     FM310400 23005KT 6SM HZ SCT300 
     FM311800 20010KT P6SM SCT300
       
TAF MMDO 301703Z 3018/3118 25006KT P6SM SKC 
     BECMG 3020/3021 25012KT 
     FM310200 25005KT P6SM SKC 
     BECMG 3105/3106 00000KT 
     FM311700 25012KT P6SM SKC
       
TAF MMTG 301656Z 3018/3118 30015KT P6SM SCT020 SCT300 
     FM310400 30008KT P6SM BKN020 
     TEMPO 3112/3116 BKN010 
     FM311800 24010KT P6SM SCT015
       
TAF MMTJ 301646Z 3018/3124 30015KT P6SM BKN020 TX22/3021Z TN10/3112Z 
     FM310400 30008KT 6SM HZ SCT015 
     TEMPO 3112/3116 3SM BR BKN005 OVC010 
     FM311800 30010KT P6SM SKC
       
TAF COR MMMM 301827Z 3018/3124 20010G20KT P6SM SCT200 
     FM310600 23005KT 6SM HZ SCT200 
     FM311800 23010KT P6SM SCT200
       
TAF MMTM 301625Z 3018/3118 02010KT 6SM HZ BKN020 
     TEMPO 3022/3102 5SM -RA BKN010 
     FM310600 05010KT 6SM HZ BKN010 
     TEMPO 3112/3115 3SM HZ BKN005 
     FM311800 13010KT 6SM HZ SCT015 SCT080
       
TAF AMD MMVR 301922Z 3019/3118 33010G20KT 6SM HZ SCT015 TX31/3019Z TN22/3112Z 
     FM310000 33015G25KT 6SM HZ BKN015 
     FM310600 03005KT 6SM HZ BKN010 BKN080 
     TEMPO 3106/3110 5SM -RA 
     FM311800 33010G25KT 6SM HZ BKN015
       
TAF MMHO 301646Z 3018/3118 24010KT P6SM SKC 
     FM310500 23005KT P6SM SKC 
     FM311800 24010KT P6SM SKC
       
TAF MMGM 301703Z 3018/3118 23005KT P6SM SKC 
     BECMG 3020/3021 23012KT 
     FM310200 00000KT P6SM SKC 
     BECMG 3117/3118 23006KT
       
TAF MMAA 301625Z 3018/3124 24010KT P6SM SKC TX30/3018Z TN21/3112Z 
     FM310400 03005KT 6SM HZ SKC 
     FM311800 23010KT P6SM SKC
       
TAF MMZC 301632Z 3018/3124 20010KT P6SM SKC TX26/3021Z TN02/3113Z 
     FM310600 23005KT P6SM SCT250 
     FM311800 23015KT P6SM SCT250
       
TAF MMRX 301727Z 3018/3118 34015KT P6SM SKC 
     BECMG 3020/3021 36012KT 
     FM310100 07006KT P6SM SKC 
     BECMG 3103/3104 12008KT 
     FM311000 15010KT 3SM BR HZ BKN010 
     FM311500 15015KT P6SM SKC
       
TAF MMLP 301646Z 3018/3118 34010KT P6SM SKC 
     FM310600 16005KT P6SM SKC 
     FM311800 34010KT P6SM SKC
       
TAF MMMY 301706Z 3018/3124 33015KT P6SM SKC TX29/3021Z TN17/3112Z 
     FM310000 06010KT P6SM SKC 
     FM310600 13005KT P6SM SKC 
     FM311800 13010KT P6SM SKC
       
TAF MMCU 301706Z 3018/3118 22010KT P6SM SKC 
     FM310400 22012KT P6SM SKC 
     FM311800 20010G20KT P6SM SKC
       
TAF MMMZ 301646Z 3018/3124 24010KT P6SM SCT250 TX28/3020Z TN11/3112Z 
     FM310400 03005KT P6SM SKC 
     TEMPO 3111/3115 1SM BR BKN005 
     FM311800 23010KT P6SM SKC
       
TAF MMML 301646Z 3018/3118 33015KT P6SM SKC 
     FM310600 30010KT P6SM SKC 
     FM311800 33012KT P6SM SKC
       
TAF MMMA 301727Z 3018/3118 33012KT P6SM SKC 
     BECMG 3020/3021 36015KT 
     FM310200 03012KT P6SM SKC 
     BECMG 3105/3106 12006KT 
     FM311000 15005KT 3SM BR HZ SCT015 
     FM311500 15012KT P6SM SKC
       
TAF MMPB 301639Z 3018/3118 15006KT 6SM HZ SCT220 
     BECMG 3020/3021 21015KT SCT020 
     FM310200 00000KT P6SM SCT220 
     BECMG 3112/3113 6SM HZ
       
TAF MMCP 301716Z 3018/3118 12010KT 6SM HZ SCT300 
     FM302000 36010G20KT 6SM HZ SCT030 BKN300 
     FM310200 03006KT P6SM BKN300 
     BECMG 3105/3106 12005KT 
     FM311200 12006KT 6SM HZ BKN300
       
TAF MMQT 301650Z 3018/3118 29010KT 6SM HZ SCT220 
     BECMG 3020/3021 29015KT 
     FM310200 03005KT P6SM SCT220 
     BECMG 3105/3106 17005KT 
     FM311200 18005KT 6SM HZ SCT220
       
TAF MMZH 301639Z 3018/3118 23008KT 6SM HZ SCT250 
     BECMG 3020/3021 23012KT SCT020 
     FM310200 00000KT P6SM SCT250 
     BECMG 3112/3113 6SM HZ
       
TAF MMAS 301650Z 3018/3118 00000KT P6SM SCT210 
     BECMG 3020/3021 25012KT BKN210 
     FM310200 00000KT P6SM SCT210 
     BECMG 3112/3113 6SM HZ 
     FM311800 23015KT P6SM BKN220
       
TAF MMTO 301625Z 3018/3124 25010KT 6SM HZ SCT015 SCT200 TX24/3021Z TN01/3112Z 
     FM310500 23005KT 6SM HZ SCT200 
     FM311800 20010KT 6SM HZ SCT200
       
TAF MMMX 301625Z 3018/3124 08010KT P6SM SCT025 SCT200 TX27/3021Z TN12/3112Z 
     FM310400 03005KT P6SM SCT200 
     FM311800 14010KT P6SM SCT200
       
TAF MMPR 301632Z 3018/3124 24010KT P6SM SCT250 TX27/3021Z TN17/3112Z 
     FM310500 03005KT 6SM HZ SCT015 SCT250 
     FM311800 23010KT P6SM SCT250
       
TAF MMMD 301656Z 3018/3124 13015KT 6SM HZ BKN025 BKN300 TX37/3020Z TN22/3112Z 
     FM310300 13010KT 6SM SCT020 BKN300 
     TEMPO 3112/3115 BKN010 
     FM311800 33015KT 6SM HZ BKN020
       
TAF MMPN 301650Z 3018/3118 00000KT P6SM SCT260 
     BECMG 3020/3021 23010KT 
     FM310200 00000KT P6SM SCT260 
     BECMG 3112/3113 6SM HZ
       
TAF MMLT 301703Z 3018/3118 12005KT P6SM SKC 
     BECMG 3020/3021 14015KT 
     FM310200 18008KT P6SM SKC 
     BECMG 3105/3106 27010KT 
     FM311200 24012KT P6SM SKC
       
TAF MMSD 301703Z 3018/3118 13005KT P6SM SKC 
     BECMG 3020/3021 13012KT 
     FM310200 28005KT P6SM SKC 
     BECMG 3105/3106 00000KT 
     FM311800 13005KT P6SM SKC
       
TAF AMD MMMT 301956Z 3020/3118 36020KT P6SM SCT220 
     BECMG 3101/3102 34006KT 
     FM311000 00000KT 3SM BR HZ BKN015 BKN220 
     FM311500 12005KT 6SM HZ SCT015 BKN220
       
TAF MMMV 301706Z 3018/3118 33010KT P6SM SKC 
     FM310100 20005KT P6SM SKC 
     FM311800 13010KT P6SM SKC
       
TAF MMPG 301727Z 3018/3118 00000KT P6SM SKC 
     BECMG 3020/3021 27008KT 
     FM310200 13005KT P6SM SKC 
     BECMG 3112/3113 6SM HZ 
     FM311600 13012KT P6SM SKC
       
TAF MMIO 301706Z 3018/3118 03010KT P6SM SKC 
     FM310600 03005KT P6SM SKC 
     FM311800 03010KT P6SM SKC
       
TAF MMZO 301632Z 3018/3118 23008KT P6SM SCT250 
     FM310600 03005KT 6SM HZ SCT250 
     FM311800 23010KT P6SM SCT250
       
TAF MMSP 301632Z 3018/3124 30010KT P6SM SKC TX28/3021Z TN10/3112Z 
     FM310600 13005KT 6SM HZ SKC 
     TEMPO 3112/3115 3SM BR BKN010 
     FM311800 14010KT P6SM SKC
       
TAF MMPS 301639Z 3018/3118 27010KT 6SM HZ SCT040 BKN220 
     BECMG 3020/3021 27018KT 
     FM310200 00000KT P6SM SCT220 
     BECMG 3112/3113 6SM HZ
       
TAF MMNL 301727Z 3018/3118 35010KT P6SM SKC 
     BECMG 3020/3021 34012KT 
     FM310100 07005KT P6SM SKC 
     BECMG 3103/3104 12006KT 
     FM310800 14012KT P6SM SKC 
     BECMG 3116/3117 14015KT
       
TAF MMTP 301656Z 3018/3124 24010KT P6SM SCT025 
     FM310400 23005KT P6SM SKC 
     FM311800 23010KT 6SM HZ SCT020
       
TAF MMEP 301650Z 3018/3118 27005KT P6SM SCT250 
     BECMG 3020/3021 27012KT BKN250 
     FM310200 00000KT P6SM SCT250 
     FM311000 00000KT 3SM BR HZ SCT250 
     FM311500 00000KT P6SM SCT250
       
TAF MMTC 301706Z 3018/3118 34010KT P6SM SKC 
     FM310600 03005KT P6SM SKC 
     FM311800 24010KT P6SM SKC
       
TAF MMLM 301703Z 3018/3118 34008KT P6SM SKC 
     BECMG 3020/3021 32015KT 
     FM310200 32005KT P6SM SKC 
     BECMG 3105/3106 00000KT 
     FM311200 18005KT P6SM SKC
       
TAF MMOX 301639Z 3018/3118 00000KT P6SM SCT030 BKN220 
     FM302100 16010KT P6SM BKN030CB BKN100 
     TEMPO 3022/3102 6SM -TSRA 
     FM310300 00000KT P6SM SCT030 BKN100 
     BECMG 3105/3106 00000KT SCT100 SCT220 
     FM311200 00000KT 6SM HZ SCT220